Time;durP1;ratioP1;P1;durP2;ratioP2;P2;SDS_P1;SDS_P2;PMS_P1;PMS_P2;Temp;Humidity;BMP_temperature;BMP_pressure;BME280_temperature;BME280_humidity;BME280_pressure;Samples;Min_cycle;Max_cycle;Signal;HPM_P1;HPM_P2
2022/07/23 00:00:08;;;;;;;;;;;;;;;25.83;43.63;99910.25;5085440;28;19939;-67
2022/07/23 00:02:33;;;;;;;;;;;;;;;25.88;43.63;99909.47;5085267;28;20312;-67
2022/07/23 00:04:58;;;;;;;;;;;;;;;26.03;43.42;99909.63;5088648;28;19912;-67
2022/07/23 00:07:24;;;;;;;;;;;;;;;25.79;44.05;99911.84;5085892;28;19930;-67
2022/07/23 00:09:49;;;;;;;;;;;;;;;25.41;44.59;99883.00;5083249;28;19986;-67
2022/07/23 00:12:14;;;;;;;;;;;;;;;25.56;45.00;99910.25;5087954;28;19923;-67
2022/07/23 00:14:40;;;;;;;;;;;;;;;25.70;44.97;99903.38;5085321;28;19940;-67
2022/07/23 00:17:05;;;;;;;;;;;;;;;25.77;45.39;99917.53;5085575;28;19946;-67
2022/07/23 00:19:30;;;;;;;;;;;;;;;25.34;46.63;99917.59;5084884;28;19950;-67
2022/07/23 00:21:55;;;;;;;;;;;;;;;25.42;46.40;99923.41;5084359;28;19920;-67
2022/07/23 00:24:21;;;;;;;;;;;;;;;25.56;46.10;99912.16;5085306;28;19920;-67
2022/07/23 00:26:46;;;;;;;;;;;;;;;25.62;45.54;99908.41;5084126;28;19962;-67
2022/07/23 00:29:11;;;;;;;;;;;;;;;25.56;45.96;99914.84;5085284;28;19934;-67
2022/07/23 00:31:37;;;;;;;;;;;;;;;25.53;45.91;99908.06;5084657;28;20114;-67
2022/07/23 00:34:02;;;;;;;;;;;;;;;25.41;46.11;99924.47;5083920;28;19912;-67
2022/07/23 00:36:28;;;;;;;;;;;;;;;25.51;46.42;99922.94;5082692;28;20118;-67
2022/07/23 00:38:53;;;;;;;;;;;;;;;25.53;46.21;99910.75;5083368;28;20212;-67
2022/07/23 00:41:19;;;;;;;;;;;;;;;25.27;46.85;99925.94;5083667;28;20163;-67
2022/07/23 00:43:44;;;;;;;;;;;;;;;25.13;47.54;99921.97;5083162;28;19913;-67
2022/07/23 00:46:09;;;;;;;;;;;;;;;25.06;47.74;99924.06;5085849;28;19947;-67
2022/07/23 00:48:35;;;;;;;;;;;;;;;25.10;47.84;99927.91;5083473;28;20077;-67
2022/07/23 00:51:00;;;;;;;;;;;;;;;25.22;47.54;99925.88;5082107;28;19908;-67
2022/07/23 00:53:25;;;;;;;;;;;;;;;25.26;47.68;99928.91;5083102;28;20003;-67
2022/07/23 00:55:51;;;;;;;;;;;;;;;25.21;47.96;99932.38;5084312;28;19947;-67
2022/07/23 00:58:16;;;;;;;;;;;;;;;25.16;48.44;99932.31;5082966;28;19947;-67
2022/07/23 01:00:42;;;;;;;;;;;;;;;25.23;48.55;99932.13;5082999;28;19961;-67
2022/07/23 01:03:07;;;;;;;;;;;;;;;25.34;48.22;99925.75;5082405;28;19931;-67
2022/07/23 01:05:33;;;;;;;;;;;;;;;25.44;47.88;99928.56;5083285;28;19913;-67
2022/07/23 01:07:58;;;;;;;;;;;;;;;25.31;47.68;99921.66;5082175;28;20030;-67
2022/07/23 01:10:32;;;;;;;;;;;;;;;25.44;47.28;99929.38;5083211;28;19919;-67
2022/07/23 01:13:02;;;;;;;;;;;;;;;25.29;47.69;99931.09;5083919;28;19987;-67
2022/07/23 01:15:28;;;;;;;;;;;;;;;25.23;47.54;99924.81;5087056;28;19918;-67
2022/07/23 01:17:54;;;;;;;;;;;;;;;25.34;47.66;99923.84;5102719;28;19916;-67
2022/07/23 01:20:19;;;;;;;;;;;;;;;25.27;48.34;99928.66;5085906;28;20224;-67
2022/07/23 01:22:44;;;;;;;;;;;;;;;25.10;48.86;99927.91;5084751;28;19931;-67
2022/07/23 01:25:10;;;;;;;;;;;;;;;25.03;49.22;99930.81;5083179;28;20237;-67
2022/07/23 01:27:35;;;;;;;;;;;;;;;25.00;49.17;99922.38;5064942;28;19912;-67
2022/07/23 01:30:01;;;;;;;;;;;;;;;25.01;49.23;99926.72;5055737;28;19919;-67
2022/07/23 01:32:26;;;;;;;;;;;;;;;25.07;48.80;99920.28;5043871;28;20088;-67
2022/07/23 01:34:52;;;;;;;;;;;;;;;25.08;48.94;99920.03;5044302;28;19924;-67
2022/07/23 01:37:17;;;;;;;;;;;;;;;24.89;49.04;99918.66;5043044;28;19924;-67
2022/07/23 01:39:42;;;;;;;;;;;;;;;24.96;48.91;99916.56;5044759;28;19913;-67
2022/07/23 01:42:07;;;;;;;;;;;;;;;25.04;48.99;99915.38;5045449;28;19917;-67
2022/07/23 01:44:33;;;;;;;;;;;;;;;25.12;49.05;99918.44;5042124;28;19945;-67
2022/07/23 01:46:58;;;;;;;;;;;;;;;25.18;48.18;99929.34;5041530;28;19925;-67
2022/07/23 01:49:23;;;;;;;;;;;;;;;25.02;48.92;99922.94;5041595;28;19936;-67
2022/07/23 01:52:00;;;;;;;;;;;;;;;24.66;49.81;99927.81;5044438;28;20221;-67
2022/07/23 01:54:26;;;;;;;;;;;;;;;24.78;49.71;99922.28;5043549;28;19913;-67
2022/07/23 01:56:52;;;;;;;;;;;;;;;24.82;50.05;99920.72;5042387;28;19924;-67
2022/07/23 01:59:17;;;;;;;;;;;;;;;24.90;49.66;99924.88;5044586;28;19921;-67
2022/07/23 02:01:42;;;;;;;;;;;;;;;24.72;49.82;99926.00;5042907;28;20142;-67
2022/07/23 02:04:07;;;;;;;;;;;;;;;24.72;49.79;99923.28;5042460;28;19909;-67
2022/07/23 02:06:33;;;;;;;;;;;;;;;24.65;49.77;99925.38;5042523;28;20126;-67
2022/07/23 02:08:58;;;;;;;;;;;;;;;24.61;50.00;99924.22;5041221;28;19944;-67
2022/07/23 02:11:23;;;;;;;;;;;;;;;24.60;49.95;99922.59;5042141;28;19920;-67
2022/07/23 02:13:49;;;;;;;;;;;;;;;24.60;49.86;99919.88;5042441;28;20282;-67
2022/07/23 02:16:14;;;;;;;;;;;;;;;24.57;49.69;99923.91;5042303;28;19912;-67
2022/07/23 02:18:39;;;;;;;;;;;;;;;24.61;49.52;99924.22;5042460;28;19924;-67
2022/07/23 02:21:04;;;;;;;;;;;;;;;24.60;49.54;99930.72;5040867;28;19972;-67
2022/07/23 02:23:30;;;;;;;;;;;;;;;24.63;49.77;99920.19;5042580;28;19923;-67
2022/07/23 02:25:55;;;;;;;;;;;;;;;24.52;50.76;99924.66;5042514;28;19935;-67
2022/07/23 02:28:20;;;;;;;;;;;;;;;24.55;50.65;99926.03;5053432;28;19916;-67
2022/07/23 02:30:45;;;;;;;;;;;;;;;24.63;50.64;99919.38;5082913;28;20079;-67
2022/07/23 02:33:11;;;;;;;;;;;;;;;24.60;50.82;99925.28;5083810;28;19959;-67
2022/07/23 02:35:36;;;;;;;;;;;;;;;24.58;50.93;99925.53;5083275;28;19913;-67
2022/07/23 02:38:01;;;;;;;;;;;;;;;24.54;51.15;99932.53;5083893;28;19917;-67
2022/07/23 02:40:26;;;;;;;;;;;;;;;24.70;51.17;99926.25;5083068;28;20130;-67
2022/07/23 02:42:52;;;;;;;;;;;;;;;24.66;51.09;99929.72;5082916;28;19924;-67
2022/07/23 02:45:17;;;;;;;;;;;;;;;24.66;51.21;99932.41;5083785;28;19923;-67
2022/07/23 02:47:42;;;;;;;;;;;;;;;24.42;51.86;99929.91;5084536;28;19943;-67
2022/07/23 02:50:08;;;;;;;;;;;;;;;24.35;51.65;99934.69;5084069;28;20129;-67
2022/07/23 02:52:33;;;;;;;;;;;;;;;24.24;51.46;99934.75;5083139;28;19917;-67
2022/07/23 02:54:58;;;;;;;;;;;;;;;24.12;51.92;99940.25;5083170;28;19951;-67
2022/07/23 02:57:24;;;;;;;;;;;;;;;24.03;52.23;99941.72;5082942;28;19916;-67
2022/07/23 02:59:49;;;;;;;;;;;;;;;23.94;52.70;99930.47;5083194;28;19921;-67
2022/07/23 03:02:14;;;;;;;;;;;;;;;24.00;52.80;99939.50;5082168;28;20292;-67
2022/07/23 03:04:42;;;;;;;;;;;;;;;23.95;53.12;99947.53;5085740;28;19912;-67
2022/07/23 03:07:07;;;;;;;;;;;;;;;23.93;52.89;99945.06;5088510;28;20118;-67
2022/07/23 03:09:32;;;;;;;;;;;;;;;23.99;53.06;99941.38;5087838;28;20006;-67
2022/07/23 03:11:58;;;;;;;;;;;;;;;23.95;53.44;99948.34;5085331;28;19952;-67
2022/07/23 03:14:23;;;;;;;;;;;;;;;24.01;52.97;99950.06;5086320;28;19977;-67
2022/07/23 03:16:50;;;;;;;;;;;;;;;23.97;53.04;99946.22;5085762;28;19939;-67
2022/07/23 03:19:15;;;;;;;;;;;;;;;23.97;53.17;99953.50;5085102;28;19916;-67
2022/07/23 03:21:40;;;;;;;;;;;;;;;23.92;53.65;99947.97;5083957;28;19927;-67
2022/07/23 03:24:09;;;;;;;;;;;;;;;23.95;53.17;99952.94;5085281;28;19945;-67
2022/07/23 03:26:34;;;;;;;;;;;;;;;23.93;52.84;99961.28;5086314;28;19912;-68
2022/07/23 03:29:01;;;;;;;;;;;;;;;23.79;52.75;99962.63;5085482;28;19943;-67
2022/07/23 03:31:26;;;;;;;;;;;;;;;23.78;52.88;99953.69;5085386;28;19975;-67
2022/07/23 03:33:51;;;;;;;;;;;;;;;23.95;52.10;99955.63;5085103;28;19912;-67
2022/07/23 03:36:17;;;;;;;;;;;;;;;23.94;52.17;99964.81;5086551;28;19916;-67
2022/07/23 03:42:11;;;;;;;;;;;;;;;24.15;51.37;99964.91;5071679;28;19978;-67
2022/07/23 03:44:37;;;;;;;;;;;;;;;24.23;51.41;99969.09;5077937;28;19924;-67
2022/07/23 03:47:03;;;;;;;;;;;;;;;24.36;51.31;99965.28;5064820;28;20170;-67
2022/07/23 03:49:28;;;;;;;;;;;;;;;24.14;52.40;99971.38;5069488;28;19924;-67
2022/07/23 03:51:54;;;;;;;;;;;;;;;24.22;52.45;99964.75;5064968;28;20248;-67
2022/07/23 03:54:19;;;;;;;;;;;;;;;24.26;52.85;99965.91;5065061;28;19913;-67
2022/07/23 03:56:44;;;;;;;;;;;;;;;24.42;52.62;99967.81;5066565;28;19912;-67
2022/07/23 03:59:10;;;;;;;;;;;;;;;24.38;52.41;99958.53;5065083;28;19984;-67
2022/07/23 04:01:35;;;;;;;;;;;;;;;24.25;51.85;99961.56;5064488;28;19944;-67
2022/07/23 04:04:01;;;;;;;;;;;;;;;24.18;52.18;99964.44;5064908;28;19916;-67
2022/07/23 04:06:27;;;;;;;;;;;;;;;24.13;52.05;99966.22;5064762;28;19919;-67
2022/07/23 04:08:53;;;;;;;;;;;;;;;24.22;51.84;99967.47;5064680;28;19980;-67
2022/07/23 04:11:18;;;;;;;;;;;;;;;24.14;51.99;99970.56;5064481;28;20197;-67
2022/07/23 04:13:43;;;;;;;;;;;;;;;23.96;52.56;99971.63;5067394;28;20194;-67
2022/07/23 04:16:09;;;;;;;;;;;;;;;23.94;52.87;99976.47;5064384;28;19920;-67
2022/07/23 04:18:34;;;;;;;;;;;;;;;23.82;53.74;99984.59;5064607;28;19947;-67
2022/07/23 04:20:59;;;;;;;;;;;;;;;23.86;53.87;99979.53;5064226;28;19920;-67
2022/07/23 04:23:25;;;;;;;;;;;;;;;23.84;53.91;99976.25;5064071;28;19909;-67
2022/07/23 04:25:50;;;;;;;;;;;;;;;23.79;54.34;99982.38;5064149;28;20210;-67
2022/07/23 04:28:15;;;;;;;;;;;;;;;23.80;54.49;99970.50;5064254;28;19928;-67
2022/07/23 04:30:40;;;;;;;;;;;;;;;24.11;53.88;99976.47;5064211;28;20271;-67
2022/07/23 04:33:06;;;;;;;;;;;;;;;24.15;53.59;99975.75;5064070;28;19916;-67
2022/07/23 04:35:35;;;;;;;;;;;;;;;24.54;52.62;99975.03;5061164;28;19912;-67
2022/07/23 04:38:01;;;;;;;;;;;;;;;24.44;53.34;99972.97;5061862;28;20248;-67
2022/07/23 04:40:26;;;;;;;;;;;;;;;24.82;52.00;99977.59;5079834;28;19927;-67
2022/07/23 04:42:52;;;;;;;;;;;;;;;24.96;52.15;99978.06;5102910;28;19934;-67
2022/07/23 04:45:17;;;;;;;;;;;;;;;24.94;51.90;99978.31;5103039;28;20220;-67
2022/07/23 04:47:42;;;;;;;;;;;;;;;25.02;52.31;99969.81;5103573;28;19923;-67
2022/07/23 04:50:08;;;;;;;;;;;;;;;25.27;51.29;99969.31;5100606;28;20174;-67
2022/07/23 04:52:33;;;;;;;;;;;;;;;25.32;51.05;99963.13;5104150;28;19946;-67
2022/07/23 04:54:59;;;;;;;;;;;;;;;25.43;50.32;99973.00;5104564;28;19911;-67
2022/07/23 04:57:24;;;;;;;;;;;;;;;25.40;50.42;99973.50;5101187;28;19908;-67
2022/07/23 04:59:49;;;;;;;;;;;;;;;25.82;49.25;99978.31;5104221;28;19918;-67
2022/07/23 05:02:15;;;;;;;;;;;;;;;26.09;48.84;99973.72;5102192;28;20047;-67
2022/07/23 05:04:40;;;;;;;;;;;;;;;26.23;48.12;99969.50;5102823;28;19916;-67
2022/07/23 05:07:05;;;;;;;;;;;;;;;26.40;47.99;99981.06;5102220;28;20090;-67
2022/07/23 05:09:31;;;;;;;;;;;;;;;26.69;47.44;99972.56;5066819;28;19916;-67
2022/07/23 05:11:57;;;;;;;;;;;;;;;26.79;46.71;99975.34;5101710;28;19972;-67
2022/07/23 05:14:22;;;;;;;;;;;;;;;27.09;45.62;99969.31;5100725;28;19924;-67
2022/07/23 05:16:47;;;;;;;;;;;;;;;27.37;45.19;99970.78;5082375;28;20417;-67
2022/07/23 05:19:13;;;;;;;;;;;;;;;27.77;44.20;99975.53;5100506;28;19930;-67
2022/07/23 05:21:39;;;;;;;;;;;;;;;27.80;43.58;99968.75;5102164;28;19912;-67
2022/07/23 05:24:04;;;;;;;;;;;;;;;27.87;43.62;99964.66;5099799;28;19923;-67
2022/07/23 05:26:30;;;;;;;;;;;;;;;27.86;42.13;99962.22;5103366;28;20123;-67
2022/07/23 05:28:55;;;;;;;;;;;;;;;27.65;42.11;99959.47;5100264;28;19935;-67
2022/07/23 05:31:20;;;;;;;;;;;;;;;27.78;42.18;99960.03;5100884;28;20072;-67
2022/07/23 05:33:46;;;;;;;;;;;;;;;27.93;41.53;99969.03;5083579;28;20014;-67
2022/07/23 05:36:11;;;;;;;;;;;;;;;28.00;40.78;99957.88;5099542;28;19912;-67
2022/07/23 05:38:36;;;;;;;;;;;;;;;28.02;41.38;99961.13;5100304;28;19947;-68
2022/07/23 05:41:02;;;;;;;;;;;;;;;28.34;40.60;99969.09;5099528;28;21183;-68
2022/07/23 05:43:28;;;;;;;;;;;;;;;28.50;40.37;99959.81;5098959;28;19982;-67
2022/07/23 05:45:53;;;;;;;;;;;;;;;28.82;39.54;99955.94;5099861;28;20023;-67
2022/07/23 05:48:19;;;;;;;;;;;;;;;28.98;39.14;99964.91;5097201;28;19915;-67
2022/07/23 05:50:44;;;;;;;;;;;;;;;29.28;38.97;99956.63;5101434;28;19912;-68
2022/07/23 05:53:10;;;;;;;;;;;;;;;29.38;39.02;99959.31;5098070;28;20236;-68
2022/07/23 05:55:35;;;;;;;;;;;;;;;29.57;38.02;99959.50;5098265;28;19908;-67
2022/07/23 05:58:00;;;;;;;;;;;;;;;29.57;38.60;99958.69;5101670;28;19951;-68
2022/07/23 06:00:27;;;;;;;;;;;;;;;29.57;38.51;99958.69;5100600;28;19994;-67
2022/07/23 06:02:52;;;;;;;;;;;;;;;29.39;38.37;99960.94;5100752;28;19912;-68
2022/07/23 06:05:18;;;;;;;;;;;;;;;29.66;38.18;99960.53;5101610;28;19919;-67
2022/07/23 06:07:43;;;;;;;;;;;;;;;30.15;36.89;99949.53;5100855;28;19986;-68
2022/07/23 06:10:08;;;;;;;;;;;;;;;30.27;36.54;99953.84;5099060;28;19912;-68
2022/07/23 06:12:34;;;;;;;;;;;;;;;30.09;35.54;99958.06;5099266;28;20212;-68
2022/07/23 06:15:00;;;;;;;;;;;;;;;30.08;36.37;99959.16;5098294;28;19912;-68
2022/07/23 06:17:26;;;;;;;;;;;;;;;30.35;35.70;99948.56;5081175;28;20097;-68
2022/07/23 06:19:52;;;;;;;;;;;;;;;30.71;35.32;99945.50;5097988;28;20158;-68
2022/07/23 06:22:17;;;;;;;;;;;;;;;30.89;35.15;99952.97;5098432;28;19926;-68
2022/07/23 06:24:43;;;;;;;;;;;;;;;30.80;34.32;99947.31;5098451;28;19957;-68
2022/07/23 06:27:08;;;;;;;;;;;;;;;30.81;34.42;99951.69;5098681;28;19947;-67
2022/07/23 06:29:33;;;;;;;;;;;;;;;31.04;33.64;99950.03;5100201;28;19950;-68
2022/07/23 06:31:59;;;;;;;;;;;;;;;31.21;33.76;99952.34;5100464;28;19935;-68
2022/07/23 06:34:24;;;;;;;;;;;;;;;31.53;33.13;99957.13;5101734;28;19916;-68
2022/07/23 06:36:49;;;;;;;;;;;;;;;31.74;32.79;99947.53;5100013;28;19923;-68
2022/07/23 06:39:15;;;;;;;;;;;;;;;31.79;32.69;99945.81;5100370;28;19922;-68
2022/07/23 06:41:40;;;;;;;;;;;;;;;31.70;33.48;99949.22;5059644;28;1262414;-68
2022/07/23 06:44:06;;;;;;;;;;;;;;;32.00;32.58;99952.59;5102897;28;19935;-68
2022/07/23 06:46:31;;;;;;;;;;;;;;;32.05;33.19;99955.25;5104050;28;19916;-68
2022/07/23 06:48:56;;;;;;;;;;;;;;;32.28;32.28;99950.81;5102081;28;19959;-68
2022/07/23 06:51:22;;;;;;;;;;;;;;;32.56;31.87;99944.25;5104695;28;19924;-67
2022/07/23 06:53:47;;;;;;;;;;;;;;;32.80;31.60;99935.06;5105218;28;19930;-68
2022/07/23 06:56:12;;;;;;;;;;;;;;;32.71;31.83;99934.94;5102074;28;19916;-68
2022/07/23 06:58:38;;;;;;;;;;;;;;;33.15;31.07;99928.84;5104864;28;20205;-68
2022/07/23 07:01:03;;;;;;;;;;;;;;;33.46;30.58;99925.47;5101351;28;20251;-68
2022/07/23 07:03:28;;;;;;;;;;;;;;;33.57;29.86;99935.13;5104415;28;20183;-68
2022/07/23 07:05:54;;;;;;;;;;;;;;;33.71;29.70;99926.81;5102729;28;19930;-68
2022/07/23 07:08:19;;;;;;;;;;;;;;;33.82;29.60;99930.97;5101976;28;20101;-68
2022/07/23 07:10:44;;;;;;;;;;;;;;;33.59;29.57;99919.94;5110459;28;19922;-67
2022/07/23 07:13:10;;;;;;;;;;;;;;;33.77;29.15;99918.16;5125168;28;20193;-68
2022/07/23 07:15:35;;;;;;;;;;;;;;;34.14;29.23;99918.91;5098165;28;19923;-68
2022/07/23 07:18:00;;;;;;;;;;;;;;;34.07;28.55;99915.78;5105458;28;19911;-68
2022/07/23 07:20:26;;;;;;;;;;;;;;;34.24;28.55;99911.22;5103308;28;20387;-68
2022/07/23 07:22:51;;;;;;;;;;;;;;;34.52;28.29;99909.16;5104719;28;19919;-68
2022/07/23 07:25:17;;;;;;;;;;;;;;;34.57;28.79;99902.69;5103502;28;19961;-68
2022/07/23 07:27:43;;;;;;;;;;;;;;;35.01;27.89;99903.66;5102613;28;20147;-68
2022/07/23 07:30:09;;;;;;;;;;;;;;;35.05;27.77;99897.19;5102020;28;19991;-68
2022/07/23 07:32:36;;;;;;;;;;;;;;;35.29;27.29;99906.94;5103427;28;20016;-68
2022/07/23 07:35:02;;;;;;;;;;;;;;;35.39;26.11;99896.47;5101316;28;20236;-68
2022/07/23 07:37:27;;;;;;;;;;;;;;;35.41;25.85;99905.22;5104232;28;20208;-67
2022/07/23 07:39:53;;;;;;;;;;;;;;;35.56;25.78;99903.94;5101917;28;19916;-68
2022/07/23 07:42:18;;;;;;;;;;;;;;;35.56;26.05;99895.69;5101614;28;19912;-68
2022/07/23 07:44:43;;;;;;;;;;;;;;;35.68;25.70;99901.34;5105172;28;19991;-68
2022/07/23 07:47:09;;;;;;;;;;;;;;;35.86;25.93;99893.88;5101985;28;19918;-68
2022/07/23 07:49:34;;;;;;;;;;;;;;;35.79;24.85;99896.31;5104541;28;19994;-67
2022/07/23 07:51:59;;;;;;;;;;;;;;;35.85;24.79;99878.50;5103218;28;20108;-68
2022/07/23 07:54:25;;;;;;;;;;;;;;;35.96;24.27;99888.03;5104129;28;19943;-68
2022/07/23 07:56:50;;;;;;;;;;;;;;;36.06;24.02;99884.13;5101752;28;19968;-68
2022/07/23 07:59:15;;;;;;;;;;;;;;;35.71;24.10;99889.66;5105098;28;19988;-68
2022/07/23 08:01:41;;;;;;;;;;;;;;;35.50;23.92;99886.75;5103648;28;19923;-68
2022/07/23 08:04:06;;;;;;;;;;;;;;;35.79;24.40;99882.53;5104014;28;19918;-68
2022/07/23 08:06:31;;;;;;;;;;;;;;;36.02;24.36;99883.97;5102978;28;19923;-68
2022/07/23 08:08:57;;;;;;;;;;;;;;;36.12;24.37;99889.13;5101632;28;19919;-68
2022/07/23 08:11:22;;;;;;;;;;;;;;;36.28;23.63;99877.56;5101916;28;19916;-68
2022/07/23 08:13:48;;;;;;;;;;;;;;;36.20;23.78;99867.38;5101329;28;19931;-68
2022/07/23 08:16:13;;;;;;;;;;;;;;;35.89;24.08;99879.47;5101721;28;20240;-68
2022/07/23 08:18:38;;;;;;;;;;;;;;;36.01;23.84;99868.56;5103377;28;20201;-68
2022/07/23 08:21:05;;;;;;;;;;;;;;;36.18;22.76;99862.19;5103956;28;19961;-68
2022/07/23 08:23:31;;;;;;;;;;;;;;;36.15;23.62;99860.09;5103766;28;19911;-68
2022/07/23 08:25:56;;;;;;;;;;;;;;;36.30;23.26;99856.81;5119254;28;19927;-68
2022/07/23 08:28:22;;;;;;;;;;;;;;;36.58;22.51;99848.13;5123847;28;19912;-68
2022/07/23 08:30:47;;;;;;;;;;;;;;;36.65;22.24;99848.41;5105687;28;19916;-68
2022/07/23 08:33:14;;;;;;;;;;;;;;;36.49;22.65;99839.09;5105348;28;19965;-68
2022/07/23 08:35:42;;;;;;;;;;;;;;;36.67;21.93;99843.38;5100854;28;20133;-68
2022/07/23 08:38:08;;;;;;;;;;;;;;;36.60;22.67;99843.91;5098320;28;20198;-68
2022/07/23 08:40:36;;;;;;;;;;;;;;;36.59;22.86;99845.03;5100957;28;19969;-68
2022/07/23 08:43:05;;;;;;;;;;;;;;;36.85;21.63;99836.63;5102639;28;19911;-68
2022/07/23 08:45:30;;;;;;;;;;;;;;;36.63;22.66;99832.19;5102901;28;19916;-68
2022/07/23 08:48:00;;;;;;;;;;;;;;;36.71;22.17;99833.28;5103441;28;19935;-68
2022/07/23 08:50:25;;;;;;;;;;;;;;;36.75;22.11;99824.00;5100666;28;20166;-68
2022/07/23 08:52:52;;;;;;;;;;;;;;;36.84;21.77;99828.69;5100698;28;20047;-68
2022/07/23 08:55:18;;;;;;;;;;;;;;;36.96;22.25;99831.53;5100529;28;19924;-66
2022/07/23 08:57:44;;;;;;;;;;;;;;;36.97;21.52;99824.88;5097192;28;19911;-66
2022/07/23 09:00:10;;;;;;;;;;;;;;;37.11;21.48;99828.16;5102164;28;19923;-66
2022/07/23 09:02:38;;;;;;;;;;;;;;;37.15;21.25;99826.34;5100642;28;19912;-66
2022/07/23 09:05:04;;;;;;;;;;;;;;;37.30;22.47;99820.25;5097847;28;20197;-66
2022/07/23 09:07:29;;;;;;;;;;;;;;;37.20;22.55;99817.06;5102596;28;19965;-65
2022/07/23 09:10:09;;;;;;;;;;;;;;;37.64;22.50;99812.78;5100732;28;19959;-66
2022/07/23 09:12:34;;;;;;;;;;;;;;;37.33;21.42;99814.03;5099727;28;19912;-66
2022/07/23 09:15:07;;;;;;;;;;;;;;;37.45;22.37;99813.28;5101223;28;20226;-66
2022/07/23 09:17:37;;;;;;;;;;;;;;;37.47;21.35;99810.22;5101404;28;19985;-66
2022/07/23 09:20:13;;;;;;;;;;;;;;;37.75;21.44;99815.97;5100486;28;19951;-66
2022/07/23 09:22:39;;;;;;;;;;;;;;;37.70;20.89;99809.50;5103040;28;20232;-67
2022/07/23 09:25:07;;;;;;;;;;;;;;;37.73;20.44;99813.53;5099090;28;19923;-66
2022/07/23 09:27:52;;;;;;;;;;;;;;;37.98;19.05;99809.66;5101059;28;20216;-66
2022/07/23 09:30:18;;;;;;;;;;;;;;;37.78;19.21;99805.03;5101939;28;19947;-66
2022/07/23 09:32:44;;;;;;;;;;;;;;;37.51;20.64;99803.66;5101134;28;19916;-66
2022/07/23 09:35:09;;;;;;;;;;;;;;;37.56;20.91;99802.63;5102163;28;19923;-66
2022/07/23 09:37:34;;;;;;;;;;;;;;;37.34;20.81;99795.50;5101987;28;19935;-66
2022/07/23 09:40:08;;;;;;;;;;;;;;;37.32;21.45;99792.28;5100758;28;20161;-66
2022/07/23 09:42:33;;;;;;;;;;;;;;;37.36;21.77;99799.56;5099615;28;19919;-66
2022/07/23 09:44:59;;;;;;;;;;;;;;;37.39;19.97;99789.78;5101714;28;20086;-66
2022/07/23 09:47:25;;;;;;;;;;;;;;;37.33;20.44;99783.66;5102013;28;19980;-66
2022/07/23 09:49:57;;;;;;;;;;;;;;;37.36;19.50;99784.94;5101855;28;19916;-66
2022/07/23 09:52:26;;;;;;;;;;;;;;;37.44;20.26;99781.28;5099877;28;19949;-66
2022/07/23 09:54:57;;;;;;;;;;;;;;;37.23;21.49;99786.03;5102073;28;19961;-66
2022/07/23 09:57:22;;;;;;;;;;;;;;;37.31;19.96;99782.38;5099729;28;19926;-66
2022/07/23 09:59:48;;;;;;;;;;;;;;;37.33;20.64;99778.13;5099268;28;19916;-66
2022/07/23 10:02:14;;;;;;;;;;;;;;;37.26;19.10;99771.53;5101024;28;20167;-66
2022/07/23 10:04:41;;;;;;;;;;;;;;;37.37;19.20;99781.03;5099387;28;19920;-66
2022/07/23 10:07:08;;;;;;;;;;;;;;;37.13;18.13;99776.19;5100182;28;19970;-66
2022/07/23 10:09:35;;;;;;;;;;;;;;;36.81;19.55;99771.41;5099382;28;19935;-66
2022/07/23 10:14:40;;;;;;;;;;;;;;;36.73;17.88;99768.34;5100837;28;19912;-66
2022/07/23 10:17:06;;;;;;;;;;;;;;;36.94;19.16;99753.78;5101497;28;19912;-66
2022/07/23 10:19:32;;;;;;;;;;;;;;;36.96;20.27;99755.06;5101699;28;19927;-68
2022/07/23 10:22:09;;;;;;;;;;;;;;;36.78;20.07;99752.78;5100725;28;19923;-68
2022/07/23 10:24:35;;;;;;;;;;;;;;;36.91;19.98;99754.44;5101485;28;19950;-68
2022/07/23 10:27:18;;;;;;;;;;;;;;;37.06;19.41;99754.66;5100285;28;19915;-68
2022/07/23 10:29:46;;;;;;;;;;;;;;;37.00;19.24;99758.75;5100169;28;20091;-68
2022/07/23 10:32:20;;;;;;;;;;;;;;;36.95;18.86;99750.69;5100559;28;20193;-68
2022/07/23 10:35:03;;;;;;;;;;;;;;;37.01;17.57;99745.75;5100624;28;19915;-68
2022/07/23 10:37:40;;;;;;;;;;;;;;;36.90;18.89;99731.56;5096198;28;19911;-68
2022/07/23 10:40:13;;;;;;;;;;;;;;;36.85;18.15;99742.81;5098333;28;19928;-68
2022/07/23 10:42:39;;;;;;;;;;;;;;;36.66;19.15;99739.69;5100127;28;19923;-68
2022/07/23 10:45:22;;;;;;;;;;;;;;;36.70;19.43;99729.59;5097696;28;19943;-68
2022/07/23 10:47:48;;;;;;;;;;;;;;;36.88;19.44;99728.34;5099489;28;19911;-68
2022/07/23 10:50:17;;;;;;;;;;;;;;;36.87;17.73;99725.91;5099794;28;20029;-68
2022/07/23 10:53:03;;;;;;;;;;;;;;;36.93;18.30;99719.84;5101191;28;19912;-68
2022/07/23 10:55:28;;;;;;;;;;;;;;;36.90;18.83;99714.22;5099113;28;19923;-67
2022/07/23 10:57:53;;;;;;;;;;;;;;;36.79;17.21;99718.53;5099160;28;19912;-68
2022/07/23 11:00:26;;;;;;;;;;;;;;;36.87;17.41;99707.41;5098221;28;19954;-68
2022/07/23 11:02:53;;;;;;;;;;;;;;;36.82;19.13;99702.09;5097968;28;19947;-68
2022/07/23 11:05:19;;;;;;;;;;;;;;;36.72;19.03;99699.72;5099826;28;19926;-68
2022/07/23 11:08:03;;;;;;;;;;;;;;;36.86;18.33;99696.72;5101096;28;19912;-68
2022/07/23 11:10:36;;;;;;;;;;;;;;;37.08;18.76;99701.84;5101065;28;20025;-68
2022/07/23 11:13:20;;;;;;;;;;;;;;;36.96;18.89;99699.06;5103630;28;20260;-68
2022/07/23 11:16:12;;;;;;;;;;;;;;;37.10;18.03;99694.03;5102481;28;20098;-68
2022/07/23 11:18:40;;;;;;;;;;;;;;;37.26;17.47;99684.00;5073738;28;19916;-68
2022/07/23 11:21:28;;;;;;;;;;;;;;;37.11;18.72;99681.84;5100689;28;19954;-68
2022/07/23 11:23:57;;;;;;;;;;;;;;;37.02;17.97;99681.94;5071861;28;19913;-68
2022/07/23 11:26:37;;;;;;;;;;;;;;;37.22;17.74;99676.72;5068015;28;20228;-68
2022/07/23 11:29:21;;;;;;;;;;;;;;;37.06;19.08;99684.81;5084169;28;19922;-68
2022/07/23 11:31:53;;;;;;;;;;;;;;;36.94;18.89;99671.78;5095279;28;19979;-68
2022/07/23 11:34:37;;;;;;;;;;;;;;;36.73;17.91;99652.47;5102265;28;19919;-68
2022/07/23 11:37:04;;;;;;;;;;;;;;;36.81;18.00;99677.59;5098873;28;19916;-68
2022/07/23 11:39:30;;;;;;;;;;;;;;;36.81;17.60;99680.38;5105155;28;20216;-68
2022/07/23 11:41:55;;;;;;;;;;;;;;;36.93;18.10;99675.69;5100898;28;19916;-68
2022/07/23 11:44:39;;;;;;;;;;;;;;;36.94;17.97;99671.00;5101532;28;20350;-68
2022/07/23 11:47:05;;;;;;;;;;;;;;;37.05;17.03;99669.41;5114198;28;19922;-68
2022/07/23 11:49:31;;;;;;;;;;;;;;;37.08;17.50;99664.03;5101298;28;19912;-68
2022/07/23 11:52:10;;;;;;;;;;;;;;;37.09;17.69;99664.81;5104935;28;19935;-68
2022/07/23 11:54:37;;;;;;;;;;;;;;;37.05;17.56;99661.94;5102176;28;19982;-68
2022/07/23 11:57:03;;;;;;;;;;;;;;;37.15;17.94;99657.94;5105284;28;19919;-68
2022/07/23 11:59:32;;;;;;;;;;;;;;;37.25;16.66;99652.00;5105155;28;19982;-68
2022/07/23 12:01:58;;;;;;;;;;;;;;;37.42;16.39;99651.00;5110070;28;19916;-68
2022/07/23 12:04:25;;;;;;;;;;;;;;;37.19;17.19;99647.81;5104974;28;19948;-68
2022/07/23 12:06:50;;;;;;;;;;;;;;;37.02;17.00;99645.25;5104749;28;19912;-68
2022/07/23 12:09:16;;;;;;;;;;;;;;;37.06;16.54;99654.47;5105065;28;19947;-68
2022/07/23 12:12:00;;;;;;;;;;;;;;;37.13;16.78;99646.44;5104819;28;20251;-68
2022/07/23 12:14:25;;;;;;;;;;;;;;;37.09;16.75;99643.56;5105180;28;20347;-68
2022/07/23 12:17:06;;;;;;;;;;;;;;;37.23;16.99;99640.50;5105353;28;19927;-68
2022/07/23 12:19:32;;;;;;;;;;;;;;;37.13;16.73;99629.88;5110799;28;19916;-68
2022/07/23 12:21:57;;;;;;;;;;;;;;;37.17;17.67;99624.47;5104559;28;19961;-68
2022/07/23 12:24:23;;;;;;;;;;;;;;;37.27;17.20;99624.88;5105084;28;19978;-68
2022/07/23 12:27:07;;;;;;;;;;;;;;;37.18;16.52;99620.56;5104585;28;20018;-68
2022/07/23 12:29:36;;;;;;;;;;;;;;;37.18;17.17;99621.38;5104663;28;20209;-68
2022/07/23 12:32:01;;;;;;;;;;;;;;;37.28;17.66;99609.91;5104546;28;20220;-69
2022/07/23 12:34:27;;;;;;;;;;;;;;;37.25;17.40;99607.84;5104730;28;19912;-68
2022/07/23 12:36:52;;;;;;;;;;;;;;;37.26;17.50;99600.34;5103272;28;20220;-68
2022/07/23 12:39:30;;;;;;;;;;;;;;;37.37;16.00;99598.75;5102749;28;20059;-67
2022/07/23 12:41:56;;;;;;;;;;;;;;;37.55;17.16;99593.84;5103462;28;19923;-68
2022/07/23 12:44:21;;;;;;;;;;;;;;;37.53;16.62;99591.44;5101475;28;19912;-68
2022/07/23 12:46:50;;;;;;;;;;;;;;;37.54;17.25;99592.22;5122424;28;19915;-68
2022/07/23 12:49:25;;;;;;;;;;;;;;;37.49;16.40;99593.28;5122358;28;19949;-68
2022/07/23 12:51:51;;;;;;;;;;;;;;;37.38;16.55;99584.59;5099929;28;20139;-68